Список аэропортов
Фактическая погода:

25 июня, 00:00
Температура: +17°C (+17.0*)
Ветер: 0
Давление: *758 мм
Без существ. явл.
Время (МСК)Темп. СВетерВлажностьДавлениеОблачностьОсадки
20:00+20З, 1 м/с68%1013 гПаоблачно
21:00+19З, 1 м/с76%1013 гПаоблачно
22:00+18ЮЗ, 1 м/с82%1013 гПаоблачно
23:00+16Ю, 1 м/с87%1013 гПас прояснениями
25 июня
00:00+16Ю, 1 м/с91%1013 гПаоблачно
01:00+16Ю, 1 м/с93%1014 гПаоблачно
02:00+16В, 1 м/с95%1014 гПаоблачно
03:00+16ЮВ, 1 м/с95%1014 гПаоблачно
04:00+17ЮВ, 1 м/с89%1014 гПаоблачно
05:00+18ЮВ, 1 м/с84%1014 гПаоблачно
06:00+18Ю, 1 м/с77%1014 гПаоблачно
07:00+20ЮЗ, 1 м/с70%1014 гПаоблачно
08:00+21ЮЗ, 2 м/с60%1015 гПаоблачно
09:00+24ЮЗ, 3 м/с41%1015 гПас прояснениями
10:00+25ЮЗ, 4 м/с37%1015 гПаоблачно
11:00+26З, 4 м/с36%1015 гПамалооблачно
12:00+27З, 4 м/с35%1014 гПаоблачно
13:00+28З, 3 м/с34%1014 гПаоблачно
14:00+28З, 3 м/с36%1014 гПаоблачно
15:00+28З, 2 м/с36%1014 гПамалооблачно
16:00+27Штиль 38%1014 гПаоблачно
17:00+27В, 1 м/с40%1013 гПаясно
18:00+26В, 2 м/с46%1013 гПамалооблачно
19:00+24В, 2 м/с55%1013 гПас прояснениями
20:00+23В, 3 м/с61%1013 гПамалооблачно
21:00+22В, 3 м/с63%1013 гПаоблачно
22:00+21В, 4 м/с66%1013 гПамалооблачно
23:00+20В, 3 м/с80%1013 гПаоблачнодождь
26 июня
00:00+18В, 3 м/с88%1012 гПамалооблачносл. дождь
01:00+18В, 4 м/с88%1012 гПаоблачно
02:00+18В, 3 м/с83%1012 гПаоблачносл. дождь
03:00+19В, 3 м/с87%1012 гПаоблачнодождь
04:00+19В, 4 м/с84%1011 гПаоблачносл. дождь
05:00+22ЮВ, 3 м/с69%1011 гПамалооблачно
06:00+25Ю, 3 м/с57%1012 гПамалооблачно
07:00+27Ю, 4 м/с50%1011 гПамалооблачно
08:00+28Ю, 4 м/с47%1011 гПаоблачно
09:00+30Ю, 5 м/с43%1011 гПаясно
10:00+31Ю, 5 м/с40%1010 гПаясно
11:00+32Ю, 6 м/с36%1010 гПамалооблачносл. дождь
12:00+30ЮЗ, 3 м/с46%1010 гПаясно
13:00+32ЮЗ, 6 м/с38%1011 гПамалооблачно
14:00+31ЮЗ, 5 м/с41%1011 гПаясно
15:00+30З, 4 м/с46%1011 гПаясно
16:00+29З, 4 м/с52%1012 гПаясно
17:00+28З, 3 м/с58%1012 гПамалооблачно
18:00+26СЗ, 2 м/с63%1012 гПаоблачно
19:00+25С, 2 м/с69%1012 гПаоблачно
20:00+23С, 2 м/с78%1012 гПаоблачно